sensor_id;sensor_type;location;lat;lon;timestamp;temperature;humidity
67249;SHT31;63247;54.300;18.592;2024-02-04T00:00:29;5.45;94.53
67249;SHT31;63247;54.300;18.592;2024-02-04T00:02:55;5.48;94.41
67249;SHT31;63247;54.300;18.592;2024-02-04T00:05:20;5.51;94.89
67249;SHT31;63247;54.300;18.592;2024-02-04T00:07:46;5.39;95.05
67249;SHT31;63247;54.300;18.592;2024-02-04T00:10:11;5.42;95.03
67249;SHT31;63247;54.300;18.592;2024-02-04T00:12:37;5.49;95.05
67249;SHT31;63247;54.300;18.592;2024-02-04T00:15:03;5.55;95.17
67249;SHT31;63247;54.300;18.592;2024-02-04T00:17:31;5.58;94.76
67249;SHT31;63247;54.300;18.592;2024-02-04T00:19:59;5.58;94.43
67249;SHT31;63247;54.300;18.592;2024-02-04T00:22:25;5.55;94.61
67249;SHT31;63247;54.300;18.592;2024-02-04T00:24:50;5.60;94.51
67249;SHT31;63247;54.300;18.592;2024-02-04T00:27:19;5.54;94.49
67249;SHT31;63247;54.300;18.592;2024-02-04T00:30:05;5.59;94.23
67249;SHT31;63247;54.300;18.592;2024-02-04T00:32:31;5.63;93.78
67249;SHT31;63247;54.300;18.592;2024-02-04T00:34:56;5.63;94.25
67249;SHT31;63247;54.300;18.592;2024-02-04T00:37:21;5.47;94.20
67249;SHT31;63247;54.300;18.592;2024-02-04T00:39:47;5.59;94.26
67249;SHT31;63247;54.300;18.592;2024-02-04T00:42:12;5.52;94.29
67249;SHT31;63247;54.300;18.592;2024-02-04T00:44:38;5.58;94.27
67249;SHT31;63247;54.300;18.592;2024-02-04T00:47:03;5.34;94.71
67249;SHT31;63247;54.300;18.592;2024-02-04T00:49:29;5.35;94.26
67249;SHT31;63247;54.300;18.592;2024-02-04T00:51:54;5.34;94.16
67249;SHT31;63247;54.300;18.592;2024-02-04T00:54:20;5.37;93.96
67249;SHT31;63247;54.300;18.592;2024-02-04T00:56:45;5.35;94.11
67249;SHT31;63247;54.300;18.592;2024-02-04T00:59:10;5.37;94.07
67249;SHT31;63247;54.300;18.592;2024-02-04T01:01:37;5.49;93.87
67249;SHT31;63247;54.300;18.592;2024-02-04T01:04:03;5.30;94.24
67249;SHT31;63247;54.300;18.592;2024-02-04T01:06:28;5.45;93.86
67249;SHT31;63247;54.300;18.592;2024-02-04T01:08:56;5.38;94.03
67249;SHT31;63247;54.300;18.592;2024-02-04T01:11:21;5.39;93.97
67249;SHT31;63247;54.300;18.592;2024-02-04T01:13:46;5.39;93.84
67249;SHT31;63247;54.300;18.592;2024-02-04T01:16:12;5.39;94.05
67249;SHT31;63247;54.300;18.592;2024-02-04T01:18:37;5.44;93.89
67249;SHT31;63247;54.300;18.592;2024-02-04T01:21:03;5.42;93.93
67249;SHT31;63247;54.300;18.592;2024-02-04T01:23:28;5.52;93.69
67249;SHT31;63247;54.300;18.592;2024-02-04T01:25:54;5.56;93.82
67249;SHT31;63247;54.300;18.592;2024-02-04T01:28:19;5.54;93.95
67249;SHT31;63247;54.300;18.592;2024-02-04T01:30:44;5.56;93.56
67249;SHT31;63247;54.300;18.592;2024-02-04T01:33:10;5.51;93.97
67249;SHT31;63247;54.300;18.592;2024-02-04T01:35:35;5.54;93.52
67249;SHT31;63247;54.300;18.592;2024-02-04T01:38:01;5.54;93.61
67249;SHT31;63247;54.300;18.592;2024-02-04T01:40:26;5.42;93.70
67249;SHT31;63247;54.300;18.592;2024-02-04T01:42:51;5.48;93.89
67249;SHT31;63247;54.300;18.592;2024-02-04T01:45:17;5.42;93.85
67249;SHT31;63247;54.300;18.592;2024-02-04T01:47:42;5.47;93.63
67249;SHT31;63247;54.300;18.592;2024-02-04T01:50:09;5.45;93.53
67249;SHT31;63247;54.300;18.592;2024-02-04T01:52:36;5.45;93.53
67249;SHT31;63247;54.300;18.592;2024-02-04T01:55:04;5.47;93.55
67249;SHT31;63247;54.300;18.592;2024-02-04T01:57:31;5.38;93.93
67249;SHT31;63247;54.300;18.592;2024-02-04T01:59:57;5.39;93.97
67249;SHT31;63247;54.300;18.592;2024-02-04T02:02:24;5.34;93.96
67249;SHT31;63247;54.300;18.592;2024-02-04T02:04:50;5.32;93.92
67249;SHT31;63247;54.300;18.592;2024-02-04T02:07:17;5.16;94.04
67249;SHT31;63247;54.300;18.592;2024-02-04T02:09:45;5.18;94.16
67249;SHT31;63247;54.300;18.592;2024-02-04T02:12:14;5.17;94.00
67249;SHT31;63247;54.300;18.592;2024-02-04T02:14:45;5.23;93.89
67249;SHT31;63247;54.300;18.592;2024-02-04T02:17:14;5.26;93.77
67249;SHT31;63247;54.300;18.592;2024-02-04T02:22:30;5.16;93.98
67249;SHT31;63247;54.300;18.592;2024-02-04T02:25:03;5.20;93.93
67249;SHT31;63247;54.300;18.592;2024-02-04T02:27:30;5.18;94.11
67249;SHT31;63247;54.300;18.592;2024-02-04T02:29:56;5.20;94.16
67249;SHT31;63247;54.300;18.592;2024-02-04T02:32:22;5.20;94.21
67249;SHT31;63247;54.300;18.592;2024-02-04T02:34:47;5.16;94.35
67249;SHT31;63247;54.300;18.592;2024-02-04T02:37:43;5.14;94.51
67249;SHT31;63247;54.300;18.592;2024-02-04T02:40:10;5.16;94.23
67249;SHT31;63247;54.300;18.592;2024-02-04T02:42:42;5.24;94.17
67249;SHT31;63247;54.300;18.592;2024-02-04T02:45:09;5.20;94.17
67249;SHT31;63247;54.300;18.592;2024-02-04T02:47:37;5.14;94.46
67249;SHT31;63247;54.300;18.592;2024-02-04T02:50:05;5.14;94.39
67249;SHT31;63247;54.300;18.592;2024-02-04T02:52:31;5.14;94.39
67249;SHT31;63247;54.300;18.592;2024-02-04T02:54:56;5.18;94.44
67249;SHT31;63247;54.300;18.592;2024-02-04T02:57:21;5.14;94.40
67249;SHT31;63247;54.300;18.592;2024-02-04T02:59:47;5.18;94.24
67249;SHT31;63247;54.300;18.592;2024-02-04T03:02:12;5.18;94.41
67249;SHT31;63247;54.300;18.592;2024-02-04T03:04:39;5.20;94.54
67249;SHT31;63247;54.300;18.592;2024-02-04T03:07:04;5.24;94.46
67249;SHT31;63247;54.300;18.592;2024-02-04T03:09:30;5.35;94.26
67249;SHT31;63247;54.300;18.592;2024-02-04T03:11:55;5.28;94.49
67249;SHT31;63247;54.300;18.592;2024-02-04T03:14:21;5.24;94.69
67249;SHT31;63247;54.300;18.592;2024-02-04T03:16:46;5.31;94.44
67249;SHT31;63247;54.300;18.592;2024-02-04T03:19:12;5.31;94.44
67249;SHT31;63247;54.300;18.592;2024-02-04T03:21:37;5.27;94.67
67249;SHT31;63247;54.300;18.592;2024-02-04T03:24:03;5.24;94.63
67249;SHT31;63247;54.300;18.592;2024-02-04T03:26:28;5.20;94.72
67249;SHT31;63247;54.300;18.592;2024-02-04T03:28:53;5.17;94.91
67249;SHT31;63247;54.300;18.592;2024-02-04T03:31:22;5.23;94.72
67249;SHT31;63247;54.300;18.592;2024-02-04T03:33:49;5.20;94.98
67249;SHT31;63247;54.300;18.592;2024-02-04T03:36:21;5.11;94.96
67249;SHT31;63247;54.300;18.592;2024-02-04T03:38:48;5.11;95.01
67249;SHT31;63247;54.300;18.592;2024-02-04T03:41:14;5.21;94.98
67249;SHT31;63247;54.300;18.592;2024-02-04T03:43:39;5.20;94.76
67249;SHT31;63247;54.300;18.592;2024-02-04T03:46:05;5.17;95.03
67249;SHT31;63247;54.300;18.592;2024-02-04T03:48:30;5.27;94.93
67249;SHT31;63247;54.300;18.592;2024-02-04T03:50:55;5.24;94.98
67249;SHT31;63247;54.300;18.592;2024-02-04T03:53:21;5.23;94.99
67249;SHT31;63247;54.300;18.592;2024-02-04T03:55:48;5.20;95.15
67249;SHT31;63247;54.300;18.592;2024-02-04T03:58:14;5.35;94.77
67249;SHT31;63247;54.300;18.592;2024-02-04T04:00:39;5.28;95.12
67249;SHT31;63247;54.300;18.592;2024-02-04T04:03:05;5.26;95.18
67249;SHT31;63247;54.300;18.592;2024-02-04T04:05:30;5.34;94.90
67249;SHT31;63247;54.300;18.592;2024-02-04T04:07:56;5.18;95.19
67249;SHT31;63247;54.300;18.592;2024-02-04T04:10:21;5.24;95.20
67249;SHT31;63247;54.300;18.592;2024-02-04T04:12:47;5.13;95.40
67249;SHT31;63247;54.300;18.592;2024-02-04T04:15:12;5.00;95.54
67249;SHT31;63247;54.300;18.592;2024-02-04T04:17:37;5.06;95.24
67249;SHT31;63247;54.300;18.592;2024-02-04T04:20:05;5.00;95.70
67249;SHT31;63247;54.300;18.592;2024-02-04T04:22:31;4.99;95.94
67249;SHT31;63247;54.300;18.592;2024-02-04T04:24:56;5.10;95.37
67249;SHT31;63247;54.300;18.592;2024-02-04T04:27:22;5.00;95.46
67249;SHT31;63247;54.300;18.592;2024-02-04T04:29:47;5.07;95.00
67249;SHT31;63247;54.300;18.592;2024-02-04T04:32:12;5.14;94.45
67249;SHT31;63247;54.300;18.592;2024-02-04T04:34:38;5.11;94.83
67249;SHT31;63247;54.300;18.592;2024-02-04T04:37:03;5.14;94.90
67249;SHT31;63247;54.300;18.592;2024-02-04T04:39:29;5.16;94.73
67249;SHT31;63247;54.300;18.592;2024-02-04T04:41:54;5.06;95.04
67249;SHT31;63247;54.300;18.592;2024-02-04T04:44:19;5.06;94.96
67249;SHT31;63247;54.300;18.592;2024-02-04T04:46:45;5.08;94.86
67249;SHT31;63247;54.300;18.592;2024-02-04T04:49:10;5.06;95.05
67249;SHT31;63247;54.300;18.592;2024-02-04T04:51:36;5.14;94.77
67249;SHT31;63247;54.300;18.592;2024-02-04T04:54:01;5.11;94.51
67249;SHT31;63247;54.300;18.592;2024-02-04T04:56:26;5.11;94.46
67249;SHT31;63247;54.300;18.592;2024-02-04T04:58:52;5.17;94.05
67249;SHT31;63247;54.300;18.592;2024-02-04T05:01:17;5.14;94.11
67249;SHT31;63247;54.300;18.592;2024-02-04T05:03:43;5.20;93.80
67249;SHT31;63247;54.300;18.592;2024-02-04T05:06:09;5.18;94.01
67249;SHT31;63247;54.300;18.592;2024-02-04T05:08:34;5.13;94.28
67249;SHT31;63247;54.300;18.592;2024-02-04T05:11:00;5.08;94.37
67249;SHT31;63247;54.300;18.592;2024-02-04T05:13:25;5.18;94.14
67249;SHT31;63247;54.300;18.592;2024-02-04T05:15:51;5.14;94.13
67249;SHT31;63247;54.300;18.592;2024-02-04T05:18:16;5.18;93.73
67249;SHT31;63247;54.300;18.592;2024-02-04T05:20:41;5.23;93.62
67249;SHT31;63247;54.300;18.592;2024-02-04T05:23:08;5.18;94.01
67249;SHT31;63247;54.300;18.592;2024-02-04T05:25:34;5.14;94.14
67249;SHT31;63247;54.300;18.592;2024-02-04T05:27:59;5.11;94.30
67249;SHT31;63247;54.300;18.592;2024-02-04T05:30:25;5.08;94.31
67249;SHT31;63247;54.300;18.592;2024-02-04T05:32:50;5.11;94.31
67249;SHT31;63247;54.300;18.592;2024-02-04T05:35:15;5.16;94.14
67249;SHT31;63247;54.300;18.592;2024-02-04T05:37:41;5.10;94.44
67249;SHT31;63247;54.300;18.592;2024-02-04T05:40:06;5.13;94.26
67249;SHT31;63247;54.300;18.592;2024-02-04T05:42:32;5.11;94.23
67249;SHT31;63247;54.300;18.592;2024-02-04T05:44:58;5.18;94.28
67249;SHT31;63247;54.300;18.592;2024-02-04T05:47:23;5.14;94.43
67249;SHT31;63247;54.300;18.592;2024-02-04T05:49:49;5.21;94.19
67249;SHT31;63247;54.300;18.592;2024-02-04T05:52:15;5.20;94.31
67249;SHT31;63247;54.300;18.592;2024-02-04T05:54:40;5.28;94.15
67249;SHT31;63247;54.300;18.592;2024-02-04T05:57:06;5.30;94.05
67249;SHT31;63247;54.300;18.592;2024-02-04T05:59:32;5.28;94.13
67249;SHT31;63247;54.300;18.592;2024-02-04T06:01:57;5.23;94.55
67249;SHT31;63247;54.300;18.592;2024-02-04T06:04:23;5.17;94.75
67249;SHT31;63247;54.300;18.592;2024-02-04T06:06:48;5.26;94.77
67249;SHT31;63247;54.300;18.592;2024-02-04T06:09:13;5.21;94.89
67249;SHT31;63247;54.300;18.592;2024-02-04T06:11:39;5.23;94.83
67249;SHT31;63247;54.300;18.592;2024-02-04T06:14:04;5.26;95.03
67249;SHT31;63247;54.300;18.592;2024-02-04T06:16:30;5.24;95.24
67249;SHT31;63247;54.300;18.592;2024-02-04T06:18:55;5.23;95.15
67249;SHT31;63247;54.300;18.592;2024-02-04T06:21:23;5.30;95.24
67249;SHT31;63247;54.300;18.592;2024-02-04T06:23:49;5.39;95.02
67249;SHT31;63247;54.300;18.592;2024-02-04T06:26:14;5.34;95.14
67249;SHT31;63247;54.300;18.592;2024-02-04T06:28:39;5.26;95.34
67249;SHT31;63247;54.300;18.592;2024-02-04T06:31:08;5.30;95.53
67249;SHT31;63247;54.300;18.592;2024-02-04T06:33:34;5.41;95.51
67249;SHT31;63247;54.300;18.592;2024-02-04T06:35:59;5.34;96.28
67249;SHT31;63247;54.300;18.592;2024-02-04T06:38:25;5.28;96.68
67249;SHT31;63247;54.300;18.592;2024-02-04T06:40:50;5.35;97.14
67249;SHT31;63247;54.300;18.592;2024-02-04T06:43:15;5.27;97.65
67249;SHT31;63247;54.300;18.592;2024-02-04T06:45:41;5.23;98.26
67249;SHT31;63247;54.300;18.592;2024-02-04T06:48:06;5.28;98.55
67249;SHT31;63247;54.300;18.592;2024-02-04T06:50:32;5.18;99.02
67249;SHT31;63247;54.300;18.592;2024-02-04T06:52:58;5.18;99.24
67249;SHT31;63247;54.300;18.592;2024-02-04T06:55:23;5.14;99.83
67249;SHT31;63247;54.300;18.592;2024-02-04T06:57:48;5.11;99.99
67249;SHT31;63247;54.300;18.592;2024-02-04T07:00:14;5.23;99.99
67249;SHT31;63247;54.300;18.592;2024-02-04T07:02:40;5.08;99.99
67249;SHT31;63247;54.300;18.592;2024-02-04T07:05:06;4.99;99.99
67249;SHT31;63247;54.300;18.592;2024-02-04T07:07:32;5.14;99.99
67249;SHT31;63247;54.300;18.592;2024-02-04T07:09:58;5.08;99.99
67249;SHT31;63247;54.300;18.592;2024-02-04T07:12:24;4.96;99.99
67249;SHT31;63247;54.300;18.592;2024-02-04T07:14:49;5.01;99.99
67249;SHT31;63247;54.300;18.592;2024-02-04T07:17:15;5.07;99.99
67249;SHT31;63247;54.300;18.592;2024-02-04T07:19:40;5.04;99.99
67249;SHT31;63247;54.300;18.592;2024-02-04T07:22:06;5.11;99.99
67249;SHT31;63247;54.300;18.592;2024-02-04T07:24:31;5.04;99.99
67249;SHT31;63247;54.300;18.592;2024-02-04T07:26:57;5.08;99.99
67249;SHT31;63247;54.300;18.592;2024-02-04T07:29:23;5.10;99.99
67249;SHT31;63247;54.300;18.592;2024-02-04T07:31:48;5.06;99.99
67249;SHT31;63247;54.300;18.592;2024-02-04T07:34:14;5.10;99.99
67249;SHT31;63247;54.300;18.592;2024-02-04T07:36:40;5.08;99.99
67249;SHT31;63247;54.300;18.592;2024-02-04T07:39:05;5.11;99.99
67249;SHT31;63247;54.300;18.592;2024-02-04T07:41:31;5.04;99.99
67249;SHT31;63247;54.300;18.592;2024-02-04T07:43:57;5.04;99.99
67249;SHT31;63247;54.300;18.592;2024-02-04T07:46:22;4.97;99.99
67249;SHT31;63247;54.300;18.592;2024-02-04T07:48:48;5.00;99.99
67249;SHT31;63247;54.300;18.592;2024-02-04T07:51:13;5.06;99.99
67249;SHT31;63247;54.300;18.592;2024-02-04T07:53:38;5.06;99.99
67249;SHT31;63247;54.300;18.592;2024-02-04T07:56:04;5.10;99.99
67249;SHT31;63247;54.300;18.592;2024-02-04T07:58:32;5.07;99.99
67249;SHT31;63247;54.300;18.592;2024-02-04T08:00:57;5.07;99.99
67249;SHT31;63247;54.300;18.592;2024-02-04T08:03:23;5.17;99.99
67249;SHT31;63247;54.300;18.592;2024-02-04T08:05:48;5.26;99.99
67249;SHT31;63247;54.300;18.592;2024-02-04T08:08:14;5.23;99.99
67249;SHT31;63247;54.300;18.592;2024-02-04T08:10:39;5.11;99.99
67249;SHT31;63247;54.300;18.592;2024-02-04T08:13:04;5.18;99.99
67249;SHT31;63247;54.300;18.592;2024-02-04T08:15:30;5.24;99.99
67249;SHT31;63247;54.300;18.592;2024-02-04T08:17:55;5.18;99.99
67249;SHT31;63247;54.300;18.592;2024-02-04T08:20:21;5.28;99.99
67249;SHT31;63247;54.300;18.592;2024-02-04T08:22:47;5.24;99.99
67249;SHT31;63247;54.300;18.592;2024-02-04T08:25:12;5.32;99.99
67249;SHT31;63247;54.300;18.592;2024-02-04T08:27:38;5.23;99.99
67249;SHT31;63247;54.300;18.592;2024-02-04T08:30:05;5.24;99.99
67249;SHT31;63247;54.300;18.592;2024-02-04T08:32:31;5.28;99.99
67249;SHT31;63247;54.300;18.592;2024-02-04T08:34:56;5.08;99.99
67249;SHT31;63247;54.300;18.592;2024-02-04T08:37:21;5.17;99.99
67249;SHT31;63247;54.300;18.592;2024-02-04T08:39:47;5.14;99.99
67249;SHT31;63247;54.300;18.592;2024-02-04T08:42:12;5.13;99.99
67249;SHT31;63247;54.300;18.592;2024-02-04T08:44:38;5.30;99.99
67249;SHT31;63247;54.300;18.592;2024-02-04T08:47:03;5.17;99.99
67249;SHT31;63247;54.300;18.592;2024-02-04T08:49:29;5.11;99.99
67249;SHT31;63247;54.300;18.592;2024-02-04T08:51:55;4.96;99.99
67249;SHT31;63247;54.300;18.592;2024-02-04T08:54:20;5.03;99.99
67249;SHT31;63247;54.300;18.592;2024-02-04T08:56:45;4.97;99.99
67249;SHT31;63247;54.300;18.592;2024-02-04T08:59:11;5.03;99.99
67249;SHT31;63247;54.300;18.592;2024-02-04T09:01:36;5.01;99.99
67249;SHT31;63247;54.300;18.592;2024-02-04T09:04:02;5.06;99.99
67249;SHT31;63247;54.300;18.592;2024-02-04T09:06:27;4.99;99.99
67249;SHT31;63247;54.300;18.592;2024-02-04T09:08:53;5.07;99.99
67249;SHT31;63247;54.300;18.592;2024-02-04T09:11:18;5.17;99.99
67249;SHT31;63247;54.300;18.592;2024-02-04T09:13:46;5.11;99.99
67249;SHT31;63247;54.300;18.592;2024-02-04T09:16:11;5.11;99.99
67249;SHT31;63247;54.300;18.592;2024-02-04T09:18:37;5.13;99.99
67249;SHT31;63247;54.300;18.592;2024-02-04T09:21:02;5.17;99.99
67249;SHT31;63247;54.300;18.592;2024-02-04T09:23:28;5.16;99.99
67249;SHT31;63247;54.300;18.592;2024-02-04T09:25:53;5.20;99.99
67249;SHT31;63247;54.300;18.592;2024-02-04T09:28:19;5.20;99.99
67249;SHT31;63247;54.300;18.592;2024-02-04T09:30:45;5.28;99.99
67249;SHT31;63247;54.300;18.592;2024-02-04T09:33:11;5.23;99.99
67249;SHT31;63247;54.300;18.592;2024-02-04T09:35:36;5.35;99.99
67249;SHT31;63247;54.300;18.592;2024-02-04T09:38:02;5.31;99.99
67249;SHT31;63247;54.300;18.592;2024-02-04T09:40:27;5.42;99.99
67249;SHT31;63247;54.300;18.592;2024-02-04T09:42:53;5.54;99.99
67249;SHT31;63247;54.300;18.592;2024-02-04T09:45:19;5.49;99.99
67249;SHT31;63247;54.300;18.592;2024-02-04T09:47:45;5.47;99.99
67249;SHT31;63247;54.300;18.592;2024-02-04T09:50:11;5.51;99.99
67249;SHT31;63247;54.300;18.592;2024-02-04T09:52:39;5.69;99.99
67249;SHT31;63247;54.300;18.592;2024-02-04T09:55:10;5.65;99.99
67249;SHT31;63247;54.300;18.592;2024-02-04T09:57:35;5.70;99.99
67249;SHT31;63247;54.300;18.592;2024-02-04T10:00:04;5.89;99.99
67249;SHT31;63247;54.300;18.592;2024-02-04T10:02:33;5.86;99.99
67249;SHT31;63247;54.300;18.592;2024-02-04T10:04:59;5.79;99.99
67249;SHT31;63247;54.300;18.592;2024-02-04T10:07:24;5.80;99.99
67249;SHT31;63247;54.300;18.592;2024-02-04T10:09:50;5.80;99.99
67249;SHT31;63247;54.300;18.592;2024-02-04T10:12:16;5.77;99.99
67249;SHT31;63247;54.300;18.592;2024-02-04T10:14:42;5.77;99.99
67249;SHT31;63247;54.300;18.592;2024-02-04T10:17:08;5.65;99.99
67249;SHT31;63247;54.300;18.592;2024-02-04T10:19:33;5.62;99.99
67249;SHT31;63247;54.300;18.592;2024-02-04T10:22:03;5.49;99.99
67249;SHT31;63247;54.300;18.592;2024-02-04T10:24:28;5.56;99.99
67249;SHT31;63247;54.300;18.592;2024-02-04T10:26:55;5.77;99.99
67249;SHT31;63247;54.300;18.592;2024-02-04T10:29:22;5.80;99.99
67249;SHT31;63247;54.300;18.592;2024-02-04T10:31:47;5.76;99.99
67249;SHT31;63247;54.300;18.592;2024-02-04T10:34:13;5.60;99.99
67249;SHT31;63247;54.300;18.592;2024-02-04T10:36:39;5.51;99.99
67249;SHT31;63247;54.300;18.592;2024-02-04T10:39:04;5.49;99.99
67249;SHT31;63247;54.300;18.592;2024-02-04T10:41:31;5.58;99.99
67249;SHT31;63247;54.300;18.592;2024-02-04T10:43:59;5.47;99.99
67249;SHT31;63247;54.300;18.592;2024-02-04T10:46:30;5.41;99.99
67249;SHT31;63247;54.300;18.592;2024-02-04T10:48:59;5.35;99.99
67249;SHT31;63247;54.300;18.592;2024-02-04T10:51:26;5.37;99.99
67249;SHT31;63247;54.300;18.592;2024-02-04T10:53:54;5.26;99.99
67249;SHT31;63247;54.300;18.592;2024-02-04T10:59:03;5.38;99.99
67249;SHT31;63247;54.300;18.592;2024-02-04T11:01:31;5.37;99.99
67249;SHT31;63247;54.300;18.592;2024-02-04T11:03:57;5.38;99.99
67249;SHT31;63247;54.300;18.592;2024-02-04T11:06:23;5.48;99.99
67249;SHT31;63247;54.300;18.592;2024-02-04T11:08:53;5.45;99.99
67249;SHT31;63247;54.300;18.592;2024-02-04T11:11:20;5.37;99.99
67249;SHT31;63247;54.300;18.592;2024-02-04T11:13:50;5.38;99.99
67249;SHT31;63247;54.300;18.592;2024-02-04T11:16:48;5.41;99.99
67249;SHT31;63247;54.300;18.592;2024-02-04T11:19:44;5.38;99.99
67249;SHT31;63247;54.300;18.592;2024-02-04T11:27:34;5.24;99.99
67249;SHT31;63247;54.300;18.592;2024-02-04T11:30:00;5.26;99.99
67249;SHT31;63247;54.300;18.592;2024-02-04T11:32:26;5.35;99.99
67249;SHT31;63247;54.300;18.592;2024-02-04T11:34:53;5.42;99.99
67249;SHT31;63247;54.300;18.592;2024-02-04T11:37:20;5.31;99.99
67249;SHT31;63247;54.300;18.592;2024-02-04T11:39:50;5.35;99.99
67249;SHT31;63247;54.300;18.592;2024-02-04T11:42:15;5.30;99.99
67249;SHT31;63247;54.300;18.592;2024-02-04T11:44:41;5.28;99.99
67249;SHT31;63247;54.300;18.592;2024-02-04T11:47:07;5.47;99.99
67249;SHT31;63247;54.300;18.592;2024-02-04T11:49:33;5.37;99.99
67249;SHT31;63247;54.300;18.592;2024-02-04T11:51:59;5.42;99.99
67249;SHT31;63247;54.300;18.592;2024-02-04T11:54:25;5.41;99.99
67249;SHT31;63247;54.300;18.592;2024-02-04T11:56:51;5.32;99.99
67249;SHT31;63247;54.300;18.592;2024-02-04T11:59:25;5.31;99.99
67249;SHT31;63247;54.300;18.592;2024-02-04T12:01:55;5.28;99.99
67249;SHT31;63247;54.300;18.592;2024-02-04T12:04:21;5.21;99.99
67249;SHT31;63247;54.300;18.592;2024-02-04T12:06:47;5.17;99.99
67249;SHT31;63247;54.300;18.592;2024-02-04T12:09:16;5.24;99.99
67249;SHT31;63247;54.300;18.592;2024-02-04T12:11:43;5.31;99.99
67249;SHT31;63247;54.300;18.592;2024-02-04T12:14:10;5.39;99.99
67249;SHT31;63247;54.300;18.592;2024-02-04T12:16:35;5.27;99.99
67249;SHT31;63247;54.300;18.592;2024-02-04T12:19:02;5.31;99.99
67249;SHT31;63247;54.300;18.592;2024-02-04T12:21:31;5.26;99.99
67249;SHT31;63247;54.300;18.592;2024-02-04T12:23:58;5.28;99.99
67249;SHT31;63247;54.300;18.592;2024-02-04T12:26:24;5.41;99.99
67249;SHT31;63247;54.300;18.592;2024-02-04T12:28:50;5.34;99.99
67249;SHT31;63247;54.300;18.592;2024-02-04T12:31:20;5.34;99.99
67249;SHT31;63247;54.300;18.592;2024-02-04T12:33:56;5.32;99.99
67249;SHT31;63247;54.300;18.592;2024-02-04T12:36:28;5.35;99.99
67249;SHT31;63247;54.300;18.592;2024-02-04T12:38:59;5.54;99.99
67249;SHT31;63247;54.300;18.592;2024-02-04T12:41:35;5.45;99.99
67249;SHT31;63247;54.300;18.592;2024-02-04T12:44:00;5.45;99.99
67249;SHT31;63247;54.300;18.592;2024-02-04T12:46:28;5.49;99.99
67249;SHT31;63247;54.300;18.592;2024-02-04T12:48:58;5.35;99.99
67249;SHT31;63247;54.300;18.592;2024-02-04T12:51:30;5.37;99.99
67249;SHT31;63247;54.300;18.592;2024-02-04T12:54:09;5.41;99.99
67249;SHT31;63247;54.300;18.592;2024-02-04T12:56:51;5.37;99.99
67249;SHT31;63247;54.300;18.592;2024-02-04T12:59:30;5.45;99.99
67249;SHT31;63247;54.300;18.592;2024-02-04T13:02:00;5.48;99.99
67249;SHT31;63247;54.300;18.592;2024-02-04T13:04:26;5.51;99.99
67249;SHT31;63247;54.300;18.592;2024-02-04T13:06:52;5.56;99.99
67249;SHT31;63247;54.300;18.592;2024-02-04T13:09:18;5.51;99.99
67249;SHT31;63247;54.300;18.592;2024-02-04T13:11:44;5.52;99.99
67249;SHT31;63247;54.300;18.592;2024-02-04T13:14:10;5.55;99.99
67249;SHT31;63247;54.300;18.592;2024-02-04T13:16:37;5.48;99.99
67249;SHT31;63247;54.300;18.592;2024-02-04T13:19:03;5.51;99.99
67249;SHT31;63247;54.300;18.592;2024-02-04T13:21:28;5.58;99.99
67249;SHT31;63247;54.300;18.592;2024-02-04T13:23:54;5.51;99.99
67249;SHT31;63247;54.300;18.592;2024-02-04T13:26:19;5.47;99.99
67249;SHT31;63247;54.300;18.592;2024-02-04T13:28:45;5.42;99.99
67249;SHT31;63247;54.300;18.592;2024-02-04T13:31:11;5.48;99.99
67249;SHT31;63247;54.300;18.592;2024-02-04T13:33:40;5.47;99.99
67249;SHT31;63247;54.300;18.592;2024-02-04T13:36:09;5.45;99.99
67249;SHT31;63247;54.300;18.592;2024-02-04T13:38:35;5.34;99.99
67249;SHT31;63247;54.300;18.592;2024-02-04T13:41:04;5.30;99.99
67249;SHT31;63247;54.300;18.592;2024-02-04T13:43:31;5.28;99.99
67249;SHT31;63247;54.300;18.592;2024-02-04T13:45:57;5.37;99.99
67249;SHT31;63247;54.300;18.592;2024-02-04T13:48:23;5.35;99.99
67249;SHT31;63247;54.300;18.592;2024-02-04T13:50:51;5.26;99.99
67249;SHT31;63247;54.300;18.592;2024-02-04T13:53:16;5.31;99.99
67249;SHT31;63247;54.300;18.592;2024-02-04T13:55:42;5.32;99.99
67249;SHT31;63247;54.300;18.592;2024-02-04T13:58:07;5.28;99.99
67249;SHT31;63247;54.300;18.592;2024-02-04T14:00:32;5.41;99.99
67249;SHT31;63247;54.300;18.592;2024-02-04T14:02:58;5.35;99.99
67249;SHT31;63247;54.300;18.592;2024-02-04T14:05:23;5.39;99.99
67249;SHT31;63247;54.300;18.592;2024-02-04T14:07:50;5.39;99.99
67249;SHT31;63247;54.300;18.592;2024-02-04T14:10:16;5.41;99.99
67249;SHT31;63247;54.300;18.592;2024-02-04T14:12:41;5.47;99.99
67249;SHT31;63247;54.300;18.592;2024-02-04T14:15:11;5.47;99.99
67249;SHT31;63247;54.300;18.592;2024-02-04T14:17:36;5.47;99.99
67249;SHT31;63247;54.300;18.592;2024-02-04T14:20:02;5.49;99.99
67249;SHT31;63247;54.300;18.592;2024-02-04T14:22:29;5.62;99.99
67249;SHT31;63247;54.300;18.592;2024-02-04T14:24:55;5.60;99.99
67249;SHT31;63247;54.300;18.592;2024-02-04T14:27:20;5.58;99.99
67249;SHT31;63247;54.300;18.592;2024-02-04T14:29:46;5.56;99.99
67249;SHT31;63247;54.300;18.592;2024-02-04T14:32:11;5.56;99.99
67249;SHT31;63247;54.300;18.592;2024-02-04T14:34:36;5.56;99.99
67249;SHT31;63247;54.300;18.592;2024-02-04T14:37:03;5.52;99.99
67249;SHT31;63247;54.300;18.592;2024-02-04T14:39:28;5.52;99.99
67249;SHT31;63247;54.300;18.592;2024-02-04T14:41:56;5.52;99.99
67249;SHT31;63247;54.300;18.592;2024-02-04T14:44:22;5.56;99.99
67249;SHT31;63247;54.300;18.592;2024-02-04T14:46:48;5.49;99.99
67249;SHT31;63247;54.300;18.592;2024-02-04T14:49:14;5.51;99.99
67249;SHT31;63247;54.300;18.592;2024-02-04T14:51:39;5.49;99.99
67249;SHT31;63247;54.300;18.592;2024-02-04T14:54:05;5.52;99.99
67249;SHT31;63247;54.300;18.592;2024-02-04T14:56:31;5.63;99.99
67249;SHT31;63247;54.300;18.592;2024-02-04T14:59:01;5.66;99.99
67249;SHT31;63247;54.300;18.592;2024-02-04T15:01:27;5.69;99.99
67249;SHT31;63247;54.300;18.592;2024-02-04T15:03:52;5.75;99.99
67249;SHT31;63247;54.300;18.592;2024-02-04T15:06:17;5.69;99.99
67249;SHT31;63247;54.300;18.592;2024-02-04T15:08:45;5.69;99.99
67249;SHT31;63247;54.300;18.592;2024-02-04T15:11:10;5.70;99.99
67249;SHT31;63247;54.300;18.592;2024-02-04T15:13:36;5.69;99.99
67249;SHT31;63247;54.300;18.592;2024-02-04T15:16:02;5.60;99.99
67249;SHT31;63247;54.300;18.592;2024-02-04T15:18:27;5.62;99.99
67249;SHT31;63247;54.300;18.592;2024-02-04T15:20:53;5.63;99.99
67249;SHT31;63247;54.300;18.592;2024-02-04T15:23:19;5.63;99.99
67249;SHT31;63247;54.300;18.592;2024-02-04T15:25:45;5.66;99.99
67249;SHT31;63247;54.300;18.592;2024-02-04T15:28:11;5.72;99.99
67249;SHT31;63247;54.300;18.592;2024-02-04T15:30:38;5.75;99.99
67249;SHT31;63247;54.300;18.592;2024-02-04T15:33:04;5.80;99.99
67249;SHT31;63247;54.300;18.592;2024-02-04T15:35:29;5.82;99.99